Decoded Metar for KBFD (BRADFORD in PA, USA) (IATA:BFD) | Meteo·Mobile Aviation Weather
aviador You're here:

KBFD Decoded Metar

BRADFORD in PA, USA
Report Time2019-02-23 21:53:00
UTC Time2019-02-23 23:01:19
Flight Rules Old
Wind140° at 11 Gusting to 20 kt
W.Decomp.*RWY 14: 10.8 kt HW 2.1 kt RCW
RWY 23: 2.1 kt HW 10.8 kt LCW
W.Rank140° ranks 5
Current wind is above 140° avg. (6.6)
Visibility9999 m
Phenomena:N/A
Clouds:Overcast 011 Hf
Expected CloudBase > 1,200 ft AGL from Temp-Dew spread
Ceiling1,100 ft
Temp00°C (ISA -11)
Dew Point-3°C (80% RH)
AAT-6.3°C
QNH1018 hPa
Density Alt719 ft
Elevation2,123 ft
Report Wrong Elevation
Raw Report
KBFD 232153Z AUTO 14011G20KT 7SM OVC011 00/M03 A3007 RMK AO2
SLP205 T00001028=

Extra information for KBFD:More info

Metar Taf Metar & Taf Last 4 Metars F.Rules Stats Wind Profile Meteogram Temp Stats Airport Information Weather charts Add Link Nearby VenuesMetar ALERT Operation Metar Decoded Social comments

AIRNAV info for KBFD